createdAt,value
2023-01-22T00:04:56.534Z,-0.4
2023-01-22T00:14:58.635Z,-0.5
2023-01-22T00:35:02.474Z,-0.5
2023-01-22T00:45:04.389Z,-0.5
2023-01-22T00:55:06.590Z,-0.6
2023-01-22T01:05:08.757Z,-0.7
2023-01-22T01:15:10.651Z,-0.6
2023-01-22T01:25:12.456Z,-0.6
2023-01-22T01:35:14.979Z,-0.6
2023-01-22T01:45:16.711Z,-0.6
2023-01-22T01:55:18.962Z,-0.6
2023-01-22T02:15:23.308Z,-0.6
2023-01-22T02:25:25.279Z,-0.6
2023-01-22T02:35:26.984Z,-0.6
2023-01-22T02:45:29.568Z,-0.6
2023-01-22T02:55:32.136Z,-0.7
2023-01-22T03:05:34.433Z,-0.8
2023-01-22T03:15:36.351Z,-0.9
2023-01-22T03:35:40.526Z,-1.1
2023-01-22T03:45:42.781Z,-1.2
2023-01-22T03:55:44.898Z,-1.2
2023-01-22T04:05:47.351Z,-1.1
2023-01-22T04:15:49.496Z,-1.2
2023-01-22T04:25:51.455Z,-1.2
2023-01-22T04:35:53.654Z,-1.2
2023-01-22T04:45:55.961Z,-1.2
2023-01-22T04:55:58.361Z,-1.2
2023-01-22T05:06:00.475Z,-1.2
2023-01-22T05:16:02.524Z,-1.1
2023-01-22T05:26:04.151Z,-1.1
2023-01-22T05:36:06.569Z,-1.1
2023-01-22T05:46:09.195Z,-1.1
2023-01-22T05:56:10.932Z,-1.1
2023-01-22T06:06:12.892Z,-1.1
2023-01-22T06:16:14.623Z,-1.1
2023-01-22T06:26:16.714Z,-1.2
2023-01-22T06:36:18.517Z,-1.2
2023-01-22T06:46:20.365Z,-1.3
2023-01-22T06:56:22.284Z,-1.3
2023-01-22T07:06:23.982Z,-1.3
2023-01-22T07:16:26.300Z,-1.3
2023-01-22T07:26:28.702Z,-1.3
2023-01-22T07:36:31.213Z,-1.3
2023-01-22T07:56:35.587Z,-1.3
2023-01-22T08:06:37.428Z,-1.2
2023-01-22T08:16:39.307Z,-1.2
2023-01-22T08:26:41.094Z,-1.2
2023-01-22T08:36:42.928Z,-1.1
2023-01-22T08:56:46.745Z,-1
2023-01-22T09:06:49.172Z,-1
2023-01-22T09:16:51.321Z,-0.9
2023-01-22T09:36:54.736Z,-0.9
2023-01-22T09:56:58.532Z,-0.7
2023-01-22T10:17:02.741Z,-0.5
2023-01-22T10:37:06.642Z,-0.5
2023-01-22T10:47:08.753Z,-0.6
2023-01-22T10:57:11.276Z,-0.6
2023-01-22T11:07:13.496Z,-0.6
2023-01-22T11:17:16.110Z,-0.5
2023-01-22T11:27:18.617Z,-0.4
2023-01-22T11:37:20.772Z,-0.2
2023-01-22T11:47:23.053Z,-0.2
2023-01-22T11:57:24.749Z,-0.1
2023-01-22T12:07:27.287Z,0
2023-01-22T12:17:29.039Z,-0.1
2023-01-22T12:27:31.714Z,0
2023-01-22T12:37:34.240Z,0
2023-01-22T12:47:36.282Z,-0.1
2023-01-22T12:57:38.089Z,0
2023-01-22T13:07:39.926Z,0
2023-01-22T13:17:42.177Z,0
2023-01-22T13:37:46.833Z,0
2023-01-22T13:47:48.623Z,0.1
2023-01-22T13:57:50.499Z,0.1
2023-01-22T14:07:52.962Z,0.1
2023-01-22T14:17:54.712Z,0.1
2023-01-22T14:27:56.432Z,0.1
2023-01-22T14:37:59.077Z,0.2
2023-01-22T14:48:00.910Z,0
2023-01-22T14:58:03.029Z,0
2023-01-22T15:08:04.975Z,0
2023-01-22T15:18:07.140Z,0
2023-01-22T15:28:08.896Z,0
2023-01-22T15:38:11.055Z,0
2023-01-22T15:48:12.893Z,0
2023-01-22T15:58:14.612Z,0
2023-01-22T16:08:16.279Z,0
2023-01-22T16:18:18.155Z,0
2023-01-22T16:28:20.597Z,0
2023-01-22T16:38:22.758Z,0
2023-01-22T16:48:25.106Z,0
2023-01-22T16:58:27.338Z,0
2023-01-22T17:08:29.535Z,0
2023-01-22T17:18:31.513Z,0
2023-01-22T17:28:33.969Z,0
2023-01-22T17:58:40.230Z,0.1
2023-01-22T18:08:42.593Z,0.1
2023-01-22T18:18:44.275Z,0.1
2023-01-22T18:38:48.800Z,0.1
2023-01-22T18:48:50.966Z,0.1
2023-01-22T18:58:53.155Z,0.1
2023-01-22T19:08:55.643Z,0.2
2023-01-22T19:18:57.957Z,0.2
2023-01-22T19:28:59.868Z,0.2
2023-01-22T19:39:02.345Z,0.2
2023-01-22T19:49:04.707Z,0.2
2023-01-22T19:59:06.713Z,0.2
2023-01-22T20:09:09.066Z,0.2
2023-01-22T20:19:11.422Z,0.3
2023-01-22T20:29:13.619Z,0.3
2023-01-22T20:39:15.538Z,0.3
2023-01-22T20:39:22.384Z,0.3
2023-01-22T20:49:24.195Z,0.3
2023-01-22T20:59:25.889Z,0.4
2023-01-22T21:09:27.573Z,0.4
2023-01-22T21:19:30.156Z,0.4
2023-01-22T21:29:32.147Z,0.5
2023-01-22T21:39:34.001Z,0.5
2023-01-22T21:49:36.544Z,0.5
2023-01-22T21:59:38.939Z,0.6
2023-01-22T22:09:40.602Z,0.6
2023-01-22T22:29:45.437Z,0.6
2023-01-22T22:39:47.618Z,0.6
2023-01-22T22:49:49.391Z,0.6
2023-01-22T22:59:51.287Z,0.6
2023-01-22T23:09:53.317Z,0.6
2023-01-22T23:19:55.010Z,0.6
2023-01-22T23:29:57.456Z,0.6
2023-01-22T23:39:59.218Z,0.6
2023-01-22T23:50:01.095Z,0.6
